MST,Max TemperatureF,Mean TemperatureF,Min TemperatureF,Max Dew PointF,MeanDew PointF,Min DewpointF,Max Humidity, Mean Humidity, Min Humidity, Max Sea Level PressureIn, Mean Sea Level PressureIn, Min Sea Level PressureIn, Max VisibilityMiles, Mean VisibilityMiles, Min VisibilityMiles, Max Wind SpeedMPH, Mean Wind SpeedMPH, Max Gust SpeedMPH,PrecipitationIn, CloudCover, Events, WindDirDegrees
2012-11-1,71,58,44,27,23,19,43,27,17,30.10,30.04,29.98,10,10,10,14,3,,0.00,0,,149
2012-11-2,73,58,44,25,22,19,46,27,14,30.12,30.05,30.00,10,10,10,6,1,,0.00,0,,212
2012-11-3,71,58,44,25,20,18,34,25,16,30.23,30.16,30.09,10,10,10,6,2,,0.00,0,,182
2012-11-4,75,58,42,30,22,18,39,26,14,30.36,30.28,30.22,10,10,10,9,3,,0.00,0,,152
2012-11-5,78,63,48,32,28,23,40,28,17,30.38,30.29,30.20,10,10,7,13,4,,0.00,0,,101
2012-11-6,80,65,50,32,29,27,43,30,17,30.33,30.22,30.14,10,10,10,10,3,,0.00,0,,142
2012-11-7,75,60,46,28,27,23,46,30,18,30.19,30.08,29.98,10,10,4,6,1,,0.00,0,,165
2012-11-8,75,58,42,43,29,23,52,32,17,29.97,29.85,29.74,10,10,9,28,6,34,0.00,3,,181
2012-11-9,62,52,42,46,35,16,59,45,30,29.76,29.71,29.66,10,10,10,26,13,37,0.00,5,,209
2012-11-10,50,42,35,28,19,12,70,40,22,30.08,29.91,29.75,10,10,10,20,8,25,0.00,4,,249
2012-11-11,50,39,28,18,14,9,55,37,22,30.46,30.31,30.09,10,10,10,8,2,,0.00,0,,217
2012-11-12,53,40,28,14,10,7,44,30,18,30.51,30.41,30.30,10,10,7,7,2,,0.00,0,,155
2012-11-13,59,44,30,14,10,7,41,26,15,30.40,30.32,30.23,10,10,10,6,1,,0.00,0,,229
2012-11-14,60,46,32,18,14,9,44,29,17,30.32,30.25,30.15,10,10,5,8,2,,0.00,0,,212
2012-11-15,60,46,33,18,15,10,41,28,17,30.31,30.22,30.16,10,10,10,8,2,,0.00,0,,195
2012-11-16,60,51,42,28,22,16,53,33,24,30.19,30.14,30.11,10,10,10,13,3,,0.00,5,,141
2012-11-17,60,50,39,43,37,27,71,61,49,30.15,30.10,30.03,10,10,10,9,2,,0.01,5,,226
2012-11-18,64,55,46,43,38,34,76,53,37,30.20,30.12,30.07,10,10,10,14,3,,0.00,3,,177
2012-11-19,66,52,39,37,34,30,71,52,32,30.34,30.27,30.20,10,10,10,10,3,,0.00,0,,216
2012-11-20,64,52,39,30,29,25,65,45,28,30.33,30.23,30.12,10,10,10,8,2,,0.00,0,,179
2012-11-21,66,50,35,28,26,23,61,41,23,30.19,30.13,30.06,10,10,10,7,2,,0.00,0,,196
2012-11-22,66,50,35,30,26,21,56,39,26,30.38,30.25,30.13,10,10,10,10,3,22,0.00,0,,191
2012-11-23,64,52,39,28,26,21,57,40,25,30.47,30.38,30.30,10,10,1,9,3,,0.00,0,,126
2012-11-24,64,50,35,27,20,18,53,35,19,30.34,30.23,30.11,10,10,5,4,0,,0.00,0,,196
2012-11-25,62,48,33,19,18,12,48,33,19,30.10,30.05,29.96,10,10,10,7,1,,0.00,0,,217
2012-11-26,66,52,37,25,20,16,45,32,21,30.27,30.16,30.06,10,10,10,6,2,,0.00,0,,179
2012-11-27,62,48,33,21,18,16,48,34,20,30.36,30.27,30.19,10,10,10,6,2,,0.00,0,,161
2012-11-28,66,52,37,25,21,16,52,32,21,30.27,30.19,30.10,10,10,3,12,1,,0.00,0,,176
2012-11-29,66,54,42,36,28,21,47,38,27,30.22,30.16,30.12,10,10,10,8,3,,0.00,4,,195
2012-11-30,60,53,46,37,36,34,62,51,42,30.15,30.10,30.05,10,10,10,12,5,,0.00,2,,176